createdAt,value
2019-01-12T00:00:08.871Z,20.52
2019-01-12T00:01:08.857Z,20.53
2019-01-12T00:02:08.842Z,20.55
2019-01-12T00:03:08.828Z,20.53
2019-01-12T00:04:08.820Z,20.55
2019-01-12T00:05:08.811Z,20.66
2019-01-12T00:06:08.802Z,20.64
2019-01-12T00:07:08.788Z,20.52
2019-01-12T00:08:08.777Z,20.55
2019-01-12T00:09:08.769Z,20.55
2019-01-12T00:10:08.760Z,20.55
2019-01-12T00:11:08.741Z,20.56
2019-01-12T00:12:08.741Z,20.53
2019-01-12T00:13:08.726Z,20.53
2019-01-12T00:14:08.722Z,20.52
2019-01-12T00:15:08.703Z,20.48
2019-01-12T00:16:08.692Z,20.52
2019-01-12T00:17:08.683Z,20.49
2019-01-12T00:18:08.677Z,20.44
2019-01-12T00:19:08.661Z,20.52
2019-01-12T00:20:08.648Z,20.49
2019-01-12T00:21:08.638Z,20.46
2019-01-12T00:22:08.626Z,20.42
2019-01-12T00:23:08.624Z,20.48
2019-01-12T00:24:08.609Z,20.44
2019-01-12T00:25:08.596Z,20.40
2019-01-12T00:26:08.586Z,20.42
2019-01-12T00:27:08.575Z,20.39
2019-01-12T00:28:08.565Z,20.39
2019-01-12T00:29:08.553Z,20.36
2019-01-12T00:30:08.544Z,20.46
2019-01-12T00:31:08.530Z,20.36
2019-01-12T00:32:08.525Z,20.44
2019-01-12T00:33:08.511Z,20.34
2019-01-12T00:34:08.502Z,20.42
2019-01-12T00:35:08.492Z,20.29
2019-01-12T00:36:08.481Z,20.34
2019-01-12T00:37:08.466Z,20.34
2019-01-12T00:38:08.455Z,20.34
2019-01-12T00:39:08.447Z,20.36
2019-01-12T00:40:08.431Z,20.27
2019-01-12T00:41:08.428Z,20.37
2019-01-12T00:42:08.413Z,20.36
2019-01-12T00:43:08.401Z,20.30
2019-01-12T00:44:08.392Z,20.33
2019-01-12T00:45:08.383Z,20.33
2019-01-12T00:46:08.369Z,20.30
2019-01-12T00:47:08.359Z,20.33
2019-01-12T00:48:08.348Z,20.32
2019-01-12T00:49:08.339Z,20.33
2019-01-12T00:50:08.331Z,20.30
2019-01-12T00:51:08.316Z,20.32
2019-01-12T00:52:08.303Z,20.34
2019-01-12T00:53:08.294Z,20.33
2019-01-12T00:54:08.282Z,20.34
2019-01-12T00:55:08.278Z,20.24
2019-01-12T00:56:08.261Z,20.29
2019-01-12T00:57:08.251Z,20.29
2019-01-12T00:58:08.234Z,20.30
2019-01-12T00:59:08.234Z,20.22
2019-01-12T01:00:08.217Z,20.30
2019-01-12T01:01:08.208Z,20.27
2019-01-12T01:02:08.197Z,20.30
2019-01-12T01:03:08.185Z,20.32
2019-01-12T01:04:08.181Z,20.32
2019-01-12T01:05:08.170Z,20.33
2019-01-12T01:06:08.154Z,20.30
2019-01-12T01:07:08.140Z,20.30
2019-01-12T01:08:08.134Z,20.26
2019-01-12T01:09:08.119Z,20.30
2019-01-12T01:10:08.110Z,20.30
2019-01-12T01:11:08.099Z,20.32
2019-01-12T01:12:08.089Z,20.32
2019-01-12T01:13:08.079Z,20.21
2019-01-12T01:14:08.071Z,20.30
2019-01-12T01:15:08.055Z,20.29
2019-01-12T01:16:08.041Z,20.21
2019-01-12T01:17:08.031Z,20.33
2019-01-12T01:18:08.022Z,20.17
2019-01-12T01:19:08.011Z,20.32
2019-01-12T01:20:08.002Z,20.27
2019-01-12T01:21:07.991Z,20.30
2019-01-12T01:22:07.981Z,20.27
2019-01-12T01:23:07.972Z,20.32
2019-01-12T01:24:07.957Z,20.33
2019-01-12T01:25:07.946Z,20.29
2019-01-12T01:26:07.935Z,20.22
2019-01-12T01:27:07.926Z,20.19
2019-01-12T01:28:07.914Z,20.18
2019-01-12T01:29:07.903Z,20.29
2019-01-12T01:30:07.893Z,20.18
2019-01-12T01:31:07.884Z,20.19
2019-01-12T01:32:07.873Z,20.18
2019-01-12T01:33:07.859Z,20.26
2019-01-12T01:34:07.845Z,20.18
2019-01-12T01:35:07.840Z,20.29
2019-01-12T01:36:07.826Z,20.18
2019-01-12T01:37:07.816Z,20.17
2019-01-12T01:38:07.806Z,20.29
2019-01-12T01:39:07.795Z,20.21
2019-01-12T01:40:07.784Z,20.26
2019-01-12T01:41:07.776Z,20.21
2019-01-12T01:42:07.763Z,20.15
2019-01-12T01:43:07.767Z,20.18
2019-01-12T01:44:07.738Z,20.21
2019-01-12T01:45:07.746Z,20.17
2019-01-12T01:46:07.719Z,20.29
2019-01-12T01:47:07.708Z,20.18
2019-01-12T01:48:07.696Z,20.17
2019-01-12T01:49:07.686Z,20.21
2019-01-12T01:50:07.679Z,20.21
2019-01-12T01:51:07.665Z,20.30
2019-01-12T01:52:07.656Z,20.17
2019-01-12T01:53:07.642Z,20.15
2019-01-12T01:54:07.638Z,20.29
2019-01-12T01:55:07.624Z,20.18
2019-01-12T01:56:07.609Z,20.21
2019-01-12T01:57:07.601Z,20.14
2019-01-12T01:58:07.589Z,20.17
2019-01-12T01:59:07.579Z,20.29
2019-01-12T02:00:07.564Z,20.19
2019-01-12T02:01:07.557Z,20.18
2019-01-12T02:02:07.544Z,20.18
2019-01-12T02:03:07.539Z,20.19
2019-01-12T02:04:07.525Z,20.14
2019-01-12T02:05:07.513Z,20.14
2019-01-12T02:06:07.502Z,20.19
2019-01-12T02:07:07.490Z,20.19
2019-01-12T02:08:07.480Z,20.17
2019-01-12T02:09:07.467Z,20.17
2019-01-12T02:10:07.459Z,20.19
2019-01-12T02:11:07.446Z,20.26
2019-01-12T02:12:07.440Z,20.19
2019-01-12T02:13:07.426Z,20.26
2019-01-12T02:14:07.416Z,20.17
2019-01-12T02:15:07.406Z,20.17
2019-01-12T02:16:07.393Z,20.17
2019-01-12T02:17:07.381Z,20.22
2019-01-12T02:18:07.371Z,20.17
2019-01-12T02:19:07.362Z,20.17
2019-01-12T02:20:07.349Z,20.15
2019-01-12T02:21:07.346Z,20.21
2019-01-12T02:22:07.327Z,20.19
2019-01-12T02:23:07.315Z,20.24
2019-01-12T02:24:07.305Z,20.24
2019-01-12T02:25:07.298Z,20.19
2019-01-12T02:26:07.284Z,20.22
2019-01-12T02:27:07.272Z,20.15
2019-01-12T02:28:07.257Z,20.18
2019-01-12T02:29:07.252Z,20.17
2019-01-12T02:30:07.249Z,20.14
2019-01-12T02:31:07.229Z,20.22
2019-01-12T02:32:07.219Z,20.17
2019-01-12T02:33:07.206Z,20.15
2019-01-12T02:34:07.201Z,20.22
2019-01-12T02:35:07.191Z,20.19
2019-01-12T02:36:07.175Z,20.18
2019-01-12T02:37:07.173Z,20.18
2019-01-12T02:38:07.154Z,20.18
2019-01-12T02:39:07.144Z,20.24
2019-01-12T02:40:07.130Z,20.26
2019-01-12T02:41:07.121Z,20.24
2019-01-12T02:42:07.112Z,20.22
2019-01-12T02:43:07.104Z,20.18
2019-01-12T02:44:07.090Z,20.17
2019-01-12T02:45:07.078Z,20.18
2019-01-12T02:46:07.067Z,20.27
2019-01-12T02:47:07.052Z,20.24
2019-01-12T02:48:07.054Z,20.21
2019-01-12T02:49:07.037Z,20.18
2019-01-12T02:50:07.023Z,20.17
2019-01-12T02:51:07.015Z,20.14
2019-01-12T02:52:07.002Z,20.22
2019-01-12T02:53:06.989Z,20.22
2019-01-12T02:54:06.979Z,20.15
2019-01-12T02:55:08.989Z,20.22
2019-01-12T02:56:06.962Z,20.17
2019-01-12T02:57:06.951Z,20.18
2019-01-12T02:58:06.936Z,20.17
2019-01-12T02:59:06.924Z,20.26
2019-01-12T03:00:06.916Z,20.17
2019-01-12T03:01:06.904Z,20.10
2019-01-12T03:02:06.893Z,20.26
2019-01-12T03:03:06.886Z,20.14
2019-01-12T03:04:06.873Z,20.15
2019-01-12T03:05:06.855Z,20.19
2019-01-12T03:06:06.854Z,20.08
2019-01-12T03:07:06.839Z,20.14
2019-01-12T03:08:06.827Z,20.17
2019-01-12T03:09:06.817Z,20.08
2019-01-12T03:10:06.803Z,20.12
2019-01-12T03:11:06.799Z,20.18
2019-01-12T03:12:06.792Z,20.18
2019-01-12T03:13:06.774Z,20.18
2019-01-12T03:14:06.760Z,20.17
2019-01-12T03:15:07.525Z,20.14
2019-01-12T03:16:06.738Z,20.12
2019-01-12T03:17:06.728Z,20.18
2019-01-12T03:18:06.720Z,20.21
2019-01-12T03:19:06.715Z,20.18
2019-01-12T03:20:06.698Z,20.04
2019-01-12T03:21:06.687Z,20.10
2019-01-12T03:22:06.679Z,20.14
2019-01-12T03:23:06.664Z,20.18
2019-01-12T03:24:06.654Z,20.17
2019-01-12T03:25:06.643Z,20.15
2019-01-12T03:26:06.633Z,20.17
2019-01-12T03:27:06.624Z,20.19
2019-01-12T03:28:06.612Z,20.17
2019-01-12T03:29:06.602Z,20.17
2019-01-12T03:30:06.589Z,20.17
2019-01-12T03:31:06.580Z,20.15
2019-01-12T03:32:06.564Z,20.17
2019-01-12T03:33:06.555Z,20.18
2019-01-12T03:34:06.544Z,20.21
2019-01-12T03:35:06.533Z,20.12
2019-01-12T03:36:06.523Z,20.19
2019-01-12T03:37:06.513Z,20.18
2019-01-12T03:38:06.502Z,20.22
2019-01-12T03:39:06.492Z,20.15
2019-01-12T03:40:06.479Z,20.18
2019-01-12T03:41:06.467Z,20.19
2019-01-12T03:42:06.458Z,20.19
2019-01-12T03:43:06.449Z,20.21
2019-01-12T03:44:06.439Z,20.10
2019-01-12T03:45:06.427Z,20.08
2019-01-12T03:46:06.413Z,20.12
2019-01-12T03:47:06.408Z,20.11
2019-01-12T03:48:06.391Z,20.24
2019-01-12T03:49:06.383Z,20.08
2019-01-12T03:50:06.368Z,20.21
2019-01-12T03:51:06.361Z,20.19
2019-01-12T03:52:06.348Z,20.17
2019-01-12T03:53:06.337Z,20.18
2019-01-12T03:54:06.329Z,20.18
2019-01-12T03:55:06.314Z,20.17
2019-01-12T03:56:06.307Z,20.18
2019-01-12T03:57:06.295Z,20.15
2019-01-12T03:58:06.285Z,20.08
2019-01-12T03:59:06.279Z,20.21
2019-01-12T04:00:06.264Z,20.21
2019-01-12T04:01:06.248Z,20.10
2019-01-12T04:02:06.239Z,20.17
2019-01-12T04:03:06.231Z,20.19
2019-01-12T04:04:06.225Z,20.22
2019-01-12T04:05:06.214Z,20.27
2019-01-12T04:06:06.203Z,20.19
2019-01-12T04:07:06.184Z,20.18
2019-01-12T04:08:06.167Z,20.22
2019-01-12T04:09:06.165Z,20.18
2019-01-12T04:10:06.151Z,20.18
2019-01-12T04:11:06.153Z,20.29
2019-01-12T04:12:06.135Z,20.17
2019-01-12T04:13:06.117Z,20.30
2019-01-12T04:14:06.115Z,20.24
2019-01-12T04:15:06.097Z,20.33
2019-01-12T04:16:06.099Z,20.29
2019-01-12T04:17:06.081Z,20.33
2019-01-12T04:18:06.064Z,20.33
2019-01-12T04:19:06.054Z,20.33
2019-01-12T04:20:06.043Z,20.33
2019-01-12T04:21:06.032Z,20.30
2019-01-12T04:22:06.022Z,20.36
2019-01-12T04:23:06.014Z,20.29
2019-01-12T04:24:06.003Z,20.36
2019-01-12T04:25:05.987Z,20.33
2019-01-12T04:26:05.978Z,20.32
2019-01-12T04:27:05.980Z,20.33
2019-01-12T04:28:05.955Z,20.30
2019-01-12T04:29:05.947Z,20.32
2019-01-12T04:30:05.938Z,20.32
2019-01-12T04:31:05.926Z,20.32
2019-01-12T04:32:05.915Z,20.32
2019-01-12T04:33:05.905Z,20.29
2019-01-12T04:34:05.889Z,20.30
2019-01-12T04:35:05.879Z,20.29
2019-01-12T04:36:05.867Z,20.36
2019-01-12T04:37:05.867Z,20.36
2019-01-12T04:38:05.847Z,20.33
2019-01-12T04:39:05.839Z,20.34
2019-01-12T04:40:05.867Z,20.32
2019-01-12T04:41:05.816Z,20.32
2019-01-12T04:42:05.807Z,20.32
2019-01-12T04:43:05.793Z,20.30
2019-01-12T04:44:05.780Z,20.32
2019-01-12T04:45:05.775Z,20.33
2019-01-12T04:46:05.772Z,20.34
2019-01-12T04:47:05.754Z,20.36
2019-01-12T04:48:05.739Z,20.26
2019-01-12T04:49:05.727Z,20.36
2019-01-12T04:50:05.719Z,20.33
2019-01-12T04:51:05.711Z,20.32
2019-01-12T04:52:05.697Z,20.32
2019-01-12T04:53:05.685Z,20.30
2019-01-12T04:54:05.678Z,20.29
2019-01-12T04:55:05.674Z,20.32
2019-01-12T04:56:05.656Z,20.33
2019-01-12T04:57:05.645Z,20.33
2019-01-12T04:58:05.638Z,20.30
2019-01-12T04:59:05.621Z,20.19
2019-01-12T05:00:05.611Z,20.33
2019-01-12T05:01:05.610Z,20.19
2019-01-12T05:02:05.589Z,20.24
2019-01-12T05:03:05.592Z,20.30
2019-01-12T05:04:05.570Z,20.21
2019-01-12T05:05:05.562Z,20.33
2019-01-12T05:06:05.546Z,20.24
2019-01-12T05:07:05.533Z,20.19
2019-01-12T05:08:05.525Z,20.33
2019-01-12T05:09:05.512Z,20.30
2019-01-12T05:10:05.503Z,20.26
2019-01-12T05:11:05.493Z,20.27
2019-01-12T05:12:05.480Z,20.24
2019-01-12T05:13:05.472Z,20.30
2019-01-12T05:14:05.459Z,20.22
2019-01-12T05:15:05.447Z,20.30
2019-01-12T05:16:05.437Z,20.26
2019-01-12T05:17:05.426Z,20.33
2019-01-12T05:18:05.415Z,20.32
2019-01-12T05:19:05.405Z,20.33
2019-01-12T05:20:05.393Z,20.18
2019-01-12T05:21:05.385Z,20.34
2019-01-12T05:22:05.377Z,20.33
2019-01-12T05:23:05.361Z,20.29
2019-01-12T05:24:05.377Z,20.32
2019-01-12T05:25:05.339Z,20.30
2019-01-12T05:26:05.328Z,20.33
2019-01-12T05:27:05.316Z,20.30
2019-01-12T05:28:05.306Z,20.33
2019-01-12T05:29:05.297Z,20.26
2019-01-12T05:30:05.284Z,20.29
2019-01-12T05:31:05.278Z,20.36
2019-01-12T05:32:05.264Z,20.36
2019-01-12T05:33:05.254Z,20.33
2019-01-12T05:34:05.241Z,20.27
2019-01-12T05:35:05.231Z,20.29
2019-01-12T05:36:05.220Z,20.32
2019-01-12T05:37:05.210Z,20.39
2019-01-12T05:38:05.199Z,20.29
2019-01-12T05:39:05.188Z,20.36
2019-01-12T05:40:05.179Z,20.34
2019-01-12T05:41:05.164Z,20.30
2019-01-12T05:42:05.159Z,20.36
2019-01-12T05:43:05.145Z,20.34
2019-01-12T05:44:05.136Z,20.37
2019-01-12T05:45:05.127Z,20.32
2019-01-12T05:46:05.113Z,20.40
2019-01-12T05:47:05.099Z,20.32
2019-01-12T05:48:05.084Z,20.29
2019-01-12T05:49:05.078Z,20.29
2019-01-12T05:50:05.067Z,20.33
2019-01-12T05:51:05.062Z,20.27
2019-01-12T05:52:05.050Z,20.37
2019-01-12T05:53:05.036Z,20.33
2019-01-12T05:54:05.026Z,20.33
2019-01-12T05:55:05.013Z,20.34
2019-01-12T05:56:05.007Z,20.30
2019-01-12T05:57:04.994Z,20.32
2019-01-12T05:58:04.986Z,20.29
2019-01-12T05:59:04.973Z,20.30
2019-01-12T06:00:04.960Z,20.37
2019-01-12T06:01:04.950Z,20.34
2019-01-12T06:02:04.939Z,20.32
2019-01-12T06:03:04.931Z,20.34
2019-01-12T06:04:04.916Z,20.32
2019-01-12T06:05:04.906Z,20.33
2019-01-12T06:06:04.889Z,20.33
2019-01-12T06:07:04.884Z,20.29
2019-01-12T06:08:04.875Z,20.29
2019-01-12T06:09:04.862Z,20.32
2019-01-12T06:10:04.853Z,20.29
2019-01-12T06:11:04.841Z,20.32
2019-01-12T06:12:04.834Z,20.34
2019-01-12T06:13:04.824Z,20.32
2019-01-12T06:14:04.809Z,20.29
2019-01-12T06:15:04.796Z,20.21
2019-01-12T06:16:04.789Z,20.36
2019-01-12T06:17:04.778Z,20.30
2019-01-12T06:18:04.765Z,20.30
2019-01-12T06:19:04.751Z,20.34
2019-01-12T06:20:04.745Z,20.30
2019-01-12T06:21:04.735Z,20.36
2019-01-12T06:22:04.725Z,20.29
2019-01-12T06:23:04.779Z,20.30
2019-01-12T06:24:04.698Z,20.30
2019-01-12T06:25:04.700Z,20.34
2019-01-12T06:26:04.681Z,20.21
2019-01-12T06:27:04.668Z,20.21
2019-01-12T06:28:04.655Z,20.29
2019-01-12T06:29:04.648Z,20.33
2019-01-12T06:30:04.644Z,20.33
2019-01-12T06:31:04.627Z,20.33
2019-01-12T06:32:04.613Z,20.26
2019-01-12T06:33:04.605Z,20.34
2019-01-12T06:34:04.594Z,20.32
2019-01-12T06:35:04.591Z,20.32
2019-01-12T06:36:04.568Z,20.36
2019-01-12T06:37:04.561Z,20.33
2019-01-12T06:38:04.548Z,20.26
2019-01-12T06:39:04.537Z,20.37
2019-01-12T06:40:04.528Z,20.33
2019-01-12T06:41:04.516Z,20.32
2019-01-12T06:42:04.503Z,20.34
2019-01-12T06:43:04.498Z,20.34
2019-01-12T06:44:04.490Z,20.36
2019-01-12T06:45:04.473Z,20.32
2019-01-12T06:46:04.463Z,20.29
2019-01-12T06:47:04.453Z,20.33
2019-01-12T06:48:04.441Z,20.32
2019-01-12T06:49:04.432Z,20.32
2019-01-12T06:50:04.419Z,20.30
2019-01-12T06:51:04.408Z,20.30
2019-01-12T06:52:04.394Z,20.32
2019-01-12T06:53:04.390Z,20.29
2019-01-12T06:54:04.375Z,20.30
2019-01-12T06:55:04.364Z,20.32
2019-01-12T06:56:10.709Z,20.32
2019-01-12T06:57:04.348Z,20.33
2019-01-12T06:58:04.331Z,20.32
2019-01-12T06:59:04.319Z,20.34
2019-01-12T07:00:04.309Z,20.34
2019-01-12T07:01:04.304Z,20.39
2019-01-12T07:02:04.290Z,20.32
2019-01-12T07:03:04.279Z,20.34
2019-01-12T07:04:04.267Z,20.32
2019-01-12T07:05:04.255Z,20.29
2019-01-12T07:06:04.246Z,20.39
2019-01-12T07:07:04.235Z,20.30
2019-01-12T07:08:04.225Z,20.32
2019-01-12T07:09:04.214Z,20.37
2019-01-12T07:10:04.201Z,20.32
2019-01-12T07:11:04.191Z,20.36
2019-01-12T07:12:04.180Z,20.34
2019-01-12T07:13:04.170Z,20.29
2019-01-12T07:14:04.158Z,20.33
2019-01-12T07:15:04.158Z,20.22
2019-01-12T07:16:04.137Z,20.33
2019-01-12T07:17:04.125Z,20.32
2019-01-12T07:18:08.881Z,20.33
2019-01-12T07:19:04.106Z,20.33
2019-01-12T07:20:04.094Z,20.32
2019-01-12T07:21:04.082Z,20.40
2019-01-12T07:22:04.072Z,20.29
2019-01-12T07:23:04.084Z,20.30
2019-01-12T07:24:04.049Z,20.34
2019-01-12T07:25:04.041Z,20.32
2019-01-12T07:26:04.028Z,20.29
2019-01-12T07:27:04.016Z,20.32
2019-01-12T07:28:04.008Z,20.34
2019-01-12T07:29:03.994Z,20.30
2019-01-12T07:30:03.989Z,20.32
2019-01-12T07:31:03.975Z,20.32
2019-01-12T07:32:03.964Z,20.32
2019-01-12T07:33:03.965Z,20.34
2019-01-12T07:34:03.942Z,20.32
2019-01-12T07:35:03.930Z,20.29
2019-01-12T07:36:03.921Z,20.33
2019-01-12T07:37:03.910Z,20.39
2019-01-12T07:38:03.900Z,20.33
2019-01-12T07:39:03.889Z,20.33
2019-01-12T07:40:03.879Z,20.33
2019-01-12T07:41:03.867Z,20.33
2019-01-12T07:42:03.863Z,20.29
2019-01-12T07:43:03.850Z,20.32
2019-01-12T07:44:03.836Z,20.33
2019-01-12T07:45:03.821Z,20.33
2019-01-12T07:46:03.812Z,20.30
2019-01-12T07:47:03.802Z,20.36
2019-01-12T07:48:03.791Z,20.34
2019-01-12T07:49:03.780Z,20.34
2019-01-12T07:50:03.773Z,20.34
2019-01-12T07:51:03.761Z,20.34
2019-01-12T07:52:03.754Z,20.30
2019-01-12T07:53:03.738Z,20.33
2019-01-12T07:54:03.727Z,20.32
2019-01-12T07:55:03.750Z,20.33
2019-01-12T07:56:03.704Z,20.32
2019-01-12T07:57:03.693Z,20.34
2019-01-12T07:58:03.682Z,20.30
2019-01-12T07:59:03.673Z,20.39
2019-01-12T08:00:03.669Z,20.32
2019-01-12T08:01:03.654Z,20.30
2019-01-12T08:02:03.641Z,20.32
2019-01-12T08:03:03.635Z,20.30
2019-01-12T08:04:03.616Z,20.32
2019-01-12T08:05:03.611Z,20.33
2019-01-12T08:06:03.597Z,20.30
2019-01-12T08:07:03.590Z,20.30
2019-01-12T08:08:03.575Z,20.39
2019-01-12T08:09:03.564Z,20.27
2019-01-12T08:10:03.557Z,20.34
2019-01-12T08:11:03.544Z,20.34
2019-01-12T08:12:03.534Z,20.32
2019-01-12T08:13:03.522Z,20.29
2019-01-12T08:14:03.518Z,20.32
2019-01-12T08:15:03.500Z,20.32
2019-01-12T08:16:03.512Z,20.30
2019-01-12T08:17:03.477Z,20.33
2019-01-12T08:18:03.467Z,20.36
2019-01-12T08:19:03.455Z,20.33
2019-01-12T08:20:03.445Z,20.32
2019-01-12T08:21:03.479Z,20.32
2019-01-12T08:22:03.421Z,20.30
2019-01-12T08:23:03.416Z,20.37
2019-01-12T08:24:03.402Z,20.32
2019-01-12T08:25:03.392Z,20.36
2019-01-12T08:26:03.387Z,20.36
2019-01-12T08:27:03.381Z,20.34
2019-01-12T08:28:03.361Z,20.34
2019-01-12T08:29:03.350Z,20.32
2019-01-12T08:30:03.340Z,20.29
2019-01-12T08:31:03.327Z,20.29
2019-01-12T08:32:03.318Z,20.39
2019-01-12T08:33:03.305Z,20.40
2019-01-12T08:34:03.294Z,20.33
2019-01-12T08:35:03.285Z,20.34
2019-01-12T08:36:03.272Z,20.36
2019-01-12T08:37:03.262Z,20.36
2019-01-12T08:38:03.253Z,20.34
2019-01-12T08:39:03.240Z,20.32
2019-01-12T08:40:03.226Z,20.34
2019-01-12T08:41:03.220Z,20.29
2019-01-12T08:42:03.209Z,20.33
2019-01-12T08:43:03.198Z,20.33
2019-01-12T08:44:03.187Z,20.34
2019-01-12T08:45:03.174Z,20.34
2019-01-12T08:46:03.174Z,20.40
2019-01-12T08:47:03.153Z,20.32
2019-01-12T08:48:03.144Z,20.32
2019-01-12T08:49:03.132Z,20.30
2019-01-12T08:50:03.121Z,20.34
2019-01-12T08:51:03.110Z,20.30
2019-01-12T08:52:03.097Z,20.36
2019-01-12T08:53:03.090Z,20.32
2019-01-12T08:54:03.116Z,20.44
2019-01-12T08:55:03.082Z,20.37
2019-01-12T08:56:03.057Z,20.34
2019-01-12T08:57:03.040Z,20.39
2019-01-12T08:58:03.030Z,20.34
2019-01-12T08:59:03.022Z,20.33
2019-01-12T09:00:03.015Z,20.30
2019-01-12T09:01:03.002Z,20.36
2019-01-12T09:02:02.996Z,20.33
2019-01-12T09:03:02.984Z,20.33
2019-01-12T09:04:02.973Z,20.40
2019-01-12T09:05:02.964Z,20.36
2019-01-12T09:06:02.953Z,20.34
2019-01-12T09:07:02.938Z,20.32
2019-01-12T09:08:02.925Z,20.42
2019-01-12T09:09:02.920Z,20.39
2019-01-12T09:10:02.905Z,20.33
2019-01-12T09:11:02.897Z,20.46
2019-01-12T09:12:02.884Z,20.37
2019-01-12T09:13:02.878Z,20.36
2019-01-12T09:14:02.865Z,20.40
2019-01-12T09:15:02.860Z,20.36
2019-01-12T09:16:02.840Z,20.40
2019-01-12T09:17:02.832Z,20.42
2019-01-12T09:18:02.830Z,20.36
2019-01-12T09:19:02.810Z,20.39
2019-01-12T09:20:02.797Z,20.37
2019-01-12T09:21:02.796Z,20.39
2019-01-12T09:22:02.776Z,20.30
2019-01-12T09:23:02.764Z,20.34
2019-01-12T09:24:02.757Z,20.37
2019-01-12T09:25:02.742Z,20.37
2019-01-12T09:26:02.733Z,20.33
2019-01-12T09:27:02.724Z,20.44
2019-01-12T09:28:02.713Z,20.37
2019-01-12T09:29:02.701Z,20.36
2019-01-12T09:30:02.692Z,20.36
2019-01-12T09:31:02.679Z,20.44
2019-01-12T09:32:02.669Z,20.33
2019-01-12T09:33:02.660Z,20.32
2019-01-12T09:34:02.643Z,20.39
2019-01-12T09:35:02.636Z,20.32
2019-01-12T09:36:02.630Z,20.34
2019-01-12T09:37:02.616Z,20.32
2019-01-12T09:38:02.604Z,20.15
2019-01-12T09:39:02.593Z,19.85
2019-01-12T09:40:02.582Z,19.53
2019-01-12T09:41:02.573Z,19.16
2019-01-12T09:42:02.560Z,18.73
2019-01-12T09:43:02.548Z,18.52
2019-01-12T09:44:02.536Z,18.21
2019-01-12T09:45:02.531Z,17.90
2019-01-12T09:46:02.514Z,17.71
2019-01-12T09:47:02.506Z,17.54
2019-01-12T09:48:02.494Z,17.49
2019-01-12T09:49:02.483Z,17.56
2019-01-12T09:50:02.475Z,17.60
2019-01-12T09:51:02.461Z,17.63
2019-01-12T09:52:02.448Z,17.76
2019-01-12T09:53:02.451Z,17.86
2019-01-12T09:54:02.434Z,17.87
2019-01-12T09:55:02.420Z,18.05
2019-01-12T09:56:02.402Z,18.09
2019-01-12T09:57:02.391Z,18.31
2019-01-12T09:58:02.379Z,18.45
2019-01-12T09:59:02.375Z,18.51
2019-01-12T10:00:02.359Z,18.60
2019-01-12T10:01:02.350Z,18.63
2019-01-12T10:02:02.333Z,18.70
2019-01-12T10:03:02.329Z,18.78
2019-01-12T10:04:02.312Z,18.86
2019-01-12T10:05:02.303Z,18.85
2019-01-12T10:06:02.288Z,18.97
2019-01-12T10:07:02.279Z,19.15
2019-01-12T10:08:02.292Z,19.19
2019-01-12T10:09:02.262Z,19.24
2019-01-12T10:10:02.246Z,19.29
2019-01-12T10:11:02.243Z,19.37
2019-01-12T10:12:02.219Z,19.41
2019-01-12T10:13:02.224Z,19.55
2019-01-12T10:14:02.197Z,19.57
2019-01-12T10:15:02.203Z,19.47
2019-01-12T10:16:02.172Z,19.66
2019-01-12T10:17:02.215Z,19.56
2019-01-12T10:18:02.153Z,19.62
2019-01-12T10:19:02.165Z,19.64
2019-01-12T10:20:02.127Z,19.75
2019-01-12T10:21:02.143Z,19.79
2019-01-12T10:22:02.106Z,19.81
2019-01-12T10:23:02.127Z,19.84
2019-01-12T10:24:02.083Z,19.85
2019-01-12T10:25:02.107Z,19.85
2019-01-12T10:26:02.059Z,19.85
2019-01-12T10:27:02.085Z,19.92
2019-01-12T10:28:02.037Z,19.96
2019-01-12T10:29:02.051Z,19.97
2019-01-12T10:30:02.018Z,19.99
2019-01-12T10:31:02.035Z,19.97
2019-01-12T10:32:01.993Z,19.99
2019-01-12T10:33:02.042Z,20.00
2019-01-12T10:34:01.975Z,20.07
2019-01-12T10:35:01.995Z,20.00
2019-01-12T10:36:01.946Z,20.08
2019-01-12T10:37:01.969Z,20.10
2019-01-12T10:38:01.929Z,20.00
2019-01-12T10:39:01.946Z,20.00
2019-01-12T10:40:01.908Z,20.10
2019-01-12T10:41:01.922Z,20.08
2019-01-12T10:42:01.887Z,20.12
2019-01-12T10:43:01.912Z,20.10
2019-01-12T10:44:01.862Z,20.11
2019-01-12T10:45:01.887Z,20.19
2019-01-12T10:46:01.838Z,20.08
2019-01-12T10:47:01.866Z,20.07
2019-01-12T10:48:01.820Z,20.11
2019-01-12T10:49:01.841Z,20.07
2019-01-12T10:50:01.841Z,20.07
2019-01-12T10:51:01.831Z,20.14
2019-01-12T10:52:01.772Z,20.12
2019-01-12T10:53:01.798Z,20.10
2019-01-12T10:54:01.749Z,20.10
2019-01-12T10:55:01.778Z,20.12
2019-01-12T10:56:01.729Z,20.18
2019-01-12T10:57:05.424Z,20.15
2019-01-12T10:58:01.717Z,20.18
2019-01-12T10:59:01.758Z,20.12
2019-01-12T11:00:01.692Z,20.15
2019-01-12T11:01:01.706Z,20.08
2019-01-12T11:02:01.663Z,20.12
2019-01-12T11:03:01.689Z,20.07
2019-01-12T11:04:01.645Z,20.12
2019-01-12T11:05:01.689Z,20.17
2019-01-12T11:06:01.620Z,20.18
2019-01-12T11:07:01.662Z,20.19
2019-01-12T11:08:01.598Z,20.22
2019-01-12T11:09:01.592Z,20.18
2019-01-12T11:10:04.345Z,20.19
2019-01-12T11:11:01.621Z,20.15
2019-01-12T11:12:01.549Z,20.19
2019-01-12T11:13:01.606Z,20.21
2019-01-12T11:14:01.535Z,20.14
2019-01-12T11:15:01.573Z,20.19
2019-01-12T11:16:01.521Z,20.15
2019-01-12T11:17:01.554Z,20.02
2019-01-12T11:18:01.496Z,19.70
2019-01-12T11:19:01.490Z,19.55
2019-01-12T11:20:01.469Z,19.45
2019-01-12T11:21:01.514Z,19.34
2019-01-12T11:22:01.452Z,19.37
2019-01-12T11:23:01.436Z,19.29
2019-01-12T11:24:01.425Z,19.34
2019-01-12T11:25:01.431Z,19.38
2019-01-12T11:26:01.400Z,19.42
2019-01-12T11:27:01.413Z,19.41
2019-01-12T11:28:01.378Z,19.56
2019-01-12T11:29:01.389Z,19.60
2019-01-12T11:30:01.354Z,19.55
2019-01-12T11:31:01.364Z,19.63
2019-01-12T11:32:01.336Z,19.66
2019-01-12T11:33:01.351Z,19.70
2019-01-12T11:34:01.314Z,19.66
2019-01-12T11:35:01.310Z,19.74
2019-01-12T11:36:01.296Z,19.81
2019-01-12T11:37:01.296Z,19.84
2019-01-12T11:38:01.263Z,19.85
2019-01-12T11:39:01.267Z,19.84
2019-01-12T11:40:01.244Z,19.87
2019-01-12T11:41:01.234Z,19.87
2019-01-12T11:42:01.223Z,19.97
2019-01-12T11:43:01.229Z,20.02
2019-01-12T11:44:01.199Z,20.02
2019-01-12T11:45:01.213Z,20.02
2019-01-12T11:46:01.179Z,20.04
2019-01-12T11:47:01.185Z,19.99
2019-01-12T11:48:01.153Z,20.02
2019-01-12T11:49:01.165Z,19.96
2019-01-12T11:50:01.133Z,20.03
2019-01-12T11:51:01.124Z,19.97
2019-01-12T11:52:01.112Z,19.99
2019-01-12T11:53:01.228Z,19.99
2019-01-12T11:54:01.093Z,20.07
2019-01-12T11:55:01.083Z,20.03
2019-01-12T11:56:01.074Z,19.99
2019-01-12T11:57:01.056Z,20.07
2019-01-12T11:58:01.055Z,20.14
2019-01-12T11:59:01.310Z,20.07
2019-01-12T12:00:01.025Z,20.07
2019-01-12T12:01:01.013Z,20.07
2019-01-12T12:02:01.010Z,20.10
2019-01-12T12:03:00.992Z,20.10
2019-01-12T12:04:00.980Z,20.12
2019-01-12T12:05:00.972Z,20.07
2019-01-12T12:06:00.959Z,20.12
2019-01-12T12:07:00.949Z,20.07
2019-01-12T12:08:00.937Z,20.10
2019-01-12T12:09:00.927Z,20.12
2019-01-12T12:10:00.916Z,20.12
2019-01-12T12:11:00.906Z,20.21
2019-01-12T12:12:00.892Z,20.22
2019-01-12T12:13:00.880Z,20.10
2019-01-12T12:14:00.872Z,20.18
2019-01-12T12:15:00.859Z,20.11
2019-01-12T12:16:01.588Z,20.22
2019-01-12T12:17:00.838Z,20.19
2019-01-12T12:18:00.828Z,20.19
2019-01-12T12:19:00.818Z,20.19
2019-01-12T12:20:00.808Z,20.15
2019-01-12T12:21:00.796Z,20.19
2019-01-12T12:22:00.785Z,20.24
2019-01-12T12:23:00.777Z,20.21
2019-01-12T12:24:00.760Z,20.19
2019-01-12T12:25:00.759Z,20.18
2019-01-12T12:26:00.745Z,20.18
2019-01-12T12:27:00.730Z,20.22
2019-01-12T12:28:00.717Z,20.15
2019-01-12T12:29:00.708Z,20.19
2019-01-12T12:30:00.704Z,20.18
2019-01-12T12:31:00.686Z,20.18
2019-01-12T12:32:00.675Z,20.22
2019-01-12T12:33:00.666Z,20.18
2019-01-12T12:34:00.655Z,20.22
2019-01-12T12:35:00.644Z,20.22
2019-01-12T12:36:00.634Z,20.14
2019-01-12T12:37:00.627Z,20.14
2019-01-12T12:38:00.611Z,20.03
2019-01-12T12:39:00.605Z,19.89
2019-01-12T12:40:00.588Z,19.92
2019-01-12T12:41:00.585Z,19.84
2019-01-12T12:42:00.563Z,19.85
2019-01-12T12:43:00.560Z,19.79
2019-01-12T12:44:00.546Z,19.85
2019-01-12T12:45:00.536Z,19.84
2019-01-12T12:46:00.524Z,19.84
2019-01-12T12:47:00.563Z,19.96
2019-01-12T12:48:00.508Z,19.89
2019-01-12T12:49:00.489Z,19.92
2019-01-12T12:50:00.475Z,19.96
2019-01-12T12:51:00.466Z,20.03
2019-01-12T12:52:00.456Z,20.02